CYPR/YPR METAR and TAF weather

Enter ICAO airport designator
Station Type Date Time Source
CYPR METAR 2024/04/15 08:56 UTC NOAA

CYPR 150856Z AUTO 14005KT 110V170 7SM -RA BKN012 BKN021 OVC033 02/01 A3012 RMK SLP202


Station Type Date Time Source
CYPR Decoded METAR 2024/04/15 08:56 UTC NOAA

Prince Rupert, B. C., Canada (CYPR) 54-18N 130-26W 34M
Apr 15, 2024 - 04:56 AM EDT / 2024.04.15 0856 UTC
Wind: from the SE (140 degrees) at 6 MPH (5 KT) (direction variable):0
Visibility: 7 mile(s):0
Sky conditions: overcast
Weather: light rain
Temperature: 35 F (2 C)
Windchill: 30 F (-1 C):1
Dew Point: 33 F (1 C)
Relative Humidity: 93%
Pressure (altimeter): 30.12 in. Hg (1019 hPa)
ob: CYPR 150856Z AUTO 14005KT 110V170 7SM -RA BKN012 BKN021 OVC033 02/01 A3012 RMK SLP202
cycle: 9

Station Type Date Time Source
CYPR TAF 2024/04/15 07:42 UTC NOAA